Terminal Aerodrome Forecast
Issued by NWS Sterling, VA

Current Version | Previous Version | Text Only | Print | Product List | Glossary Off
Versions: 1 2 3 4 5 6 7 8 9 10 11 12 13 14 15 16 17 18

158
FTUS41 KLWX 172339
TAFMRB
TAF
KMRB 172339Z 1800/1824 16006KT 1SM -SN BR OVC008
     FM180300 19004KT 5SM BR OVC015
     FM180700 28006KT P6SM BKN060
     FM181500 30006KT P6SM FEW035
     FM182200 20004KT P6SM FEW250=

USA.gov is the U.S. government's official web portal to all federal, state and local government web resources and services.